Gold Point, Nevada
Current Conditions -  °F | °C
As of 10:56 AM on Friday 24 Oct 2014 (Local Time) from KTPH Reporting Station
Clear Clear  
Wind Chill: 67°   Ceiling: Unl
Heat Index: 67°   Visibility: 10mi
Dew Point: 32°   Wind: 12mph
Humidity: 27%   Direction: 180°S
Pressure: 30.23"   Gusts: NA
Location:  37.7558°N, 117.435°W
Report Text: KTPH 241756Z AUTO 18010KT 10SM CLR 19/00 A3023 RMK AO2 SLP195 T01940000 10194 20039 50001
Loading
Personal Weather Stations






























Interactive Weather Map
Tropical Storm Tracking
New forecast layout! Learn more

10-Day Weather Forecast

Advertisements
Track Severe Weather on mobile